x

North Huron - 32nm Northeast Of Alpena, Mi (45003) Wave Buoy

10:50am - Thu 27th Nov 2014 All times are CST. -6 hours from GMT.

  • Sig Wave height 1.3ft
  • Swell Direction
  • Peak Period 3s
  • Average Period 3s
  • Wind
    25mph, 29mph gusts
  • Sea Temp 41°f
  • Air Temp 28°f
  • Sea Pressure 1020.5mb
  • North Huron - 32nm Northeast Of Alpena, Mi
  • North Huron - 32nm Northeast Of Alpena, Mi

More Historic Weather Station data

Upgrade to MSW Pro to gain access to the past 30 days of data for over 8000 Wavebouys and Weather Stations around the globe.

Join Pro

Comparision Forecast

View Surf forecast
   
Thu 11/27 10:50am 1.3ft 3s 3s 25 29 mph 1020.5mb 41f 28f
9:50am 1.3ft 4s 3s 13 18 mph 1020.6mb 41f 29f
8:50am 1.3ft 4s 3s 9 11 mph 1020.1mb 41f 29f
7:50am 1.3ft 4s 3s 13 16 mph 1019.8mb 41f 29f
6:50am 1.3ft 4s 3s 11 13 mph 1019.4mb 41f 29f
5:50am 1.6ft 4s 4s 9 13 mph 1019.3mb 41f 30f
4:50am 2ft 4s 4s 9 11 mph 1019.3mb 41f 30f
3:50am 2.5ft 5s 4s 11 13 mph 1019.3mb 41f 30f
2:50am 2.5ft 5s 4s 11 13 mph 1019.4mb 41f 30f
1:50am 2.5ft 5s 4s 13 16 mph 1019.6mb 41f 30f
12:50am 3ft 5s 4s 18 22 mph 1019.1mb 41f 31f
Wed 11/26 11:50pm 3.5ft 5s 4s 18 20 mph 1019.6mb 42f 31f
10:50pm 3.5ft 5s 4s 18 22 mph 1019.5mb 41f 31f
9:50pm 4ft 5s 4s 18 22 mph 1019.4mb 41f 31f
8:50pm 4ft 5s 4s 20 25 mph 1019.4mb 41f 31f
7:50pm 4ft 5s 4s 20 22 mph 1019.8mb 41f 31f
6:50pm 4ft 5s 4s 20 22 mph 1020.3mb 41f 32f
5:50pm 3.5ft 5s 4s 20 25 mph 1020.4mb 41f 32f
4:50pm 4ft 5s 4s 22 27 mph 1020.7mb 41f 31f
3:50pm 3.5ft 5s 4s 13 20 mph 1021.2mb 41f 32f
2:50pm 2ft 4s 3s 11 13 mph 1021.3mb 41f 31f
1:50pm 2ft 4s 3s 4 11 mph 1021.2mb 41f 32f
12:50pm 1ft 3s 3s 7 9 mph 1021mb 41f 32f
11:50am 0.7ft  -  3s 2 4 mph 1021.5mb 41f 33f
10:50am 1ft 3s 3s 4 7 mph 1022.1mb 41f 33f
9:50am 1ft 3s 3s 13 16 mph 1022.7mb 42f 33f
8:50am 1ft 3s 3s 7 13 mph 1022.9mb 42f 33f
7:50am 1ft 4s 3s 7 13 mph 1022.8mb 42f 32f
6:50am 1.3ft 4s 3s 7 13 mph 1022.6mb 42f 32f
5:50am 1.3ft 4s 4s 2
mph
1022.3mb 42f 32f
4:50am 1.6ft 5s 4s 4 7 mph 1022.5mb 42f 31f
3:50am 2ft 5s 4s 7 9 mph 1022.8mb 42f 31f
2:50am 2.5ft 5s 4s 7 11 mph 1022.8mb 42f 31f
1:50am 2.5ft 5s 4s 9 13 mph 1023.1mb 42f 31f
12:50am 2.5ft 5s 4s 13 18 mph 1022.5mb 42f 32f
Tue 11/25 11:50pm 3.5ft 5s 4s 11 16 mph 1022.1mb 42f 32f
10:50pm 3.5ft 5s 4s 16 20 mph 1021.4mb 42f 32f
9:50pm 3.5ft 6s 4s 18 22 mph 1020.6mb 42f 32f
8:50pm 3.5ft 5s 4s 20 25 mph 1019.6mb 42f 33f
7:50pm 4ft 6s 4s 11 16 mph 1019.1mb 42f 31f
6:50pm 4.5ft 5s 4s 16 20 mph 1017.9mb 42f 31f
5:50pm 4.5ft 5s 4s 18 22 mph 1017mb 42f 33f
4:50pm 5ft 6s 5s 20 27 mph 1016.6mb 42f 30f
3:50pm 5.5ft 6s 5s 18 22 mph 1015mb 42f 32f
2:50pm 5.5ft 6s 5s 22 27 mph 1013.6mb 42f 31f
1:50pm 6ft 6s 5s 25 29 mph 1012.1mb 42f 31f
12:50pm 6.5ft 6s 5s 29 34 mph 1010.8mb 42f 31f
11:50am 6.5ft 5s 5s 29 34 mph 1009.4mb 41f 31f
10:50am 6ft 5s 5s 27 31 mph 1008.4mb 41f 31f
9:50am 6ft 6s 5s 25 29 mph 1007.1mb 41f 31f
8:50am 7ft 7s 5s 27 31 mph 1005.9mb 41f 32f
7:50am 7ft 6s 5s 27 34 mph 1004.6mb 41f 32f
6:50am 7ft 7s 5s 27 29 mph 1003.2mb 41f 33f
5:50am 7ft 8s 5s 22 27 mph 1002mb 41f 33f
4:50am 7.5ft 8s 5s 22 27 mph 1000.9mb 41f 33f
3:50am 8ft 8s 5s 27 34 mph 999.7mb 41f 35f
2:50am 8ft 8s 6s 27 34 mph 999.1mb 41f 35f
1:50am 8ft 8s 6s 29 36 mph 998mb 42f 36f
12:50am 8ft 8s 6s 27 31 mph 997.2mb 41f 36f
Mon 11/24 11:50pm 9.5ft 8s 6s 29 34 mph 996.1mb 41f 35f
10:50pm 10ft 8s 6s 29 34 mph 994.7mb 41f 36f
9:50pm 9.5ft 8s 6s 34 40 mph 992.9mb 41f 36f
8:50pm 10ft 8s 6s 31 38 mph 991.9mb 41f 36f
7:50pm 6ft 7s 5s 36 43 mph 990.4mb 41f 38f
6:50pm 2.5ft 6s 4s 16 18 mph 989mb 41f 42f
5:50pm 2.5ft 7s 4s 13
mph
987mb 41f 42f
4:50pm 3ft 6s 5s 13 16 mph 985.9mb 42f 44f
3:50pm 3.5ft 6s 5s 7
mph
984.7mb 42f 43f
2:50pm 3.5ft 6s 5s 4
mph
983.5mb 42f 44f
1:50pm 4ft 7s 5s 7 11 mph 982.4mb 42f 45f
12:50pm 4.5ft 7s 5s 9
mph
981.5mb 42f 44f
11:50am 4.5ft 7s 5s 13 16 mph 981.3mb 42f 44f
10:50am 4.5ft 7s 5s 16 18 mph 980.8mb 42f 44f
9:50am 5.5ft 7s 5s 18 22 mph 980.8mb 42f 45f
8:50am 6ft 7s 5s 18 22 mph 980.5mb 42f 45f
7:50am 7ft 7s 6s 18 22 mph 979.6mb 42f 44f
6:50am 7ft 7s 5s 18 20 mph 978.8mb 42f 44f
5:50am 6.5ft 6s 5s 20 22 mph 978.6mb 42f 45f
4:50am 5ft 5s 5s 18 25 mph 979.4mb 42f 45f
3:50am 4.5ft 5s 4s 25 31 mph 980.5mb 42f 46f
2:50am 4.5ft 5s 4s 22 27 mph 982.9mb 42f 44f
1:50am 3.5ft 6s 4s 22 27 mph 985.7mb 42f 44f
12:50am 3.5ft 6s 4s 22 25 mph 988.4mb 42f 44f
Sun 11/23 11:50pm 3.5ft 6s 4s 18 20 mph 992mb 42f 44f
10:50pm 3.5ft 6s 4s 18 20 mph 994.6mb 42f 43f
9:50pm 3.5ft 6s 4s 13 16 mph 997.7mb 42f 43f
8:50pm 4ft 6s 5s 16 18 mph 999.8mb 41f 43f
7:50pm 4.5ft 6s 5s 16 20 mph 1001mb 41f 43f
6:50pm 4.5ft 6s 5s 18 20 mph 1001.8mb 41f 43f
5:50pm 5ft 6s 5s 18 20 mph 1003mb 41f 43f